Time;durP1;ratioP1;P1;durP2;ratioP2;P2;SDS_P1;SDS_P2;PMS_P1;PMS_P2;Temp;Humidity;BMP_temperature;BMP_pressure;BME280_temperature;BME280_humidity;BME280_pressure;Samples;Min_cycle;Max_cycle;Signal;HPM_P1;HPM_P2
2024/02/25 00:00:54;;;;;;;5.20;2.90;;;6.10;99.90;;;;;;803699;178;26406;-78
2024/02/25 00:03:21;;;;;;;4.43;2.70;;;6.20;99.90;;;;;;821366;174;26414;-80
2024/02/25 00:05:47;;;;;;;6.43;2.83;;;6.20;99.90;;;;;;819833;175;26988;-78
2024/02/25 00:08:14;;;;;;;5.03;2.77;;;6.20;99.90;;;;;;819062;175;26887;-77
2024/02/25 00:10:41;;;;;;;5.40;2.90;;;6.20;99.90;;;;;;799136;178;26482;-78
2024/02/25 00:13:09;;;;;;;6.53;2.37;;;6.20;99.90;;;;;;818820;175;26479;-79
2024/02/25 00:15:36;;;;;;;3.70;2.70;;;6.20;99.90;;;;;;820130;173;26421;-78
2024/02/25 00:18:04;;;;;;;5.23;2.53;;;6.30;99.90;;;;;;820345;174;26418;-77
2024/02/25 00:20:31;;;;;;;7.40;2.60;;;6.30;99.90;;;;;;820965;174;26465;-79
2024/02/25 00:22:57;;;;;;;4.63;2.80;;;6.30;99.90;;;;;;820811;174;26415;-80
2024/02/25 00:25:23;;;;;;;4.37;2.57;;;6.40;99.90;;;;;;820610;175;26394;-81
2024/02/25 00:27:50;;;;;;;4.43;2.53;;;6.40;99.90;;;;;;821942;175;26402;-80
2024/02/25 00:30:17;;;;;;;2.93;2.23;;;6.40;99.90;;;;;;806909;178;26457;-79
2024/02/25 00:32:43;;;;;;;4.70;2.70;;;6.50;99.90;;;;;;822559;173;26386;-78
2024/02/25 00:35:11;;;;;;;3.80;2.20;;;6.60;99.90;;;;;;802176;177;26457;-78
2024/02/25 00:37:38;;;;;;;3.40;2.47;;;6.50;99.90;;;;;;822761;173;26402;-80
2024/02/25 00:40:05;;;;;;;3.07;2.30;;;6.50;99.90;;;;;;822941;173;26391;-79
2024/02/25 00:42:31;;;;;;;3.53;2.27;;;6.60;99.90;;;;;;822990;173;26378;-79
2024/02/25 00:44:58;;;;;;;4.33;2.43;;;6.70;99.90;;;;;;801336;178;26408;-78
2024/02/25 00:47:25;;;;;;;2.80;2.17;;;6.70;99.90;;;;;;822315;169;26916;-80
2024/02/25 00:49:52;;;;;;;4.93;2.30;;;6.70;99.90;;;;;;798252;177;26480;-80
2024/02/25 00:52:20;;;;;;;5.43;2.20;;;6.70;99.90;;;;;;794515;180;26496;-81
2024/02/25 00:54:45;;;;;;;4.90;2.50;;;6.80;99.90;;;;;;791272;180;26818;-80
2024/02/25 00:57:11;;;;;;;2.77;2.20;;;6.80;99.90;;;;;;796529;178;27144;-81
2024/02/25 00:59:38;;;;;;;3.37;2.20;;;6.70;99.90;;;;;;788158;179;26456;-81
2024/02/25 01:02:05;;;;;;;3.10;2.30;;;6.80;99.90;;;;;;789741;176;26470;-80
2024/02/25 01:04:31;;;;;;;4.07;2.37;;;6.80;99.90;;;;;;789002;180;26461;-80
2024/02/25 01:06:58;;;;;;;3.97;2.30;;;6.80;99.90;;;;;;805340;177;26445;-80
2024/02/25 01:09:24;;;;;;;3.37;2.30;;;6.90;99.90;;;;;;790008;180;26534;-80
2024/02/25 01:11:53;;;;;;;4.53;2.43;;;6.90;99.90;;;;;;792811;178;26496;-80
2024/02/25 01:14:20;;;;;;;4.70;2.50;;;6.90;99.90;;;;;;794738;178;26996;-80
2024/02/25 01:16:48;;;;;;;3.67;2.53;;;6.90;99.90;;;;;;798701;178;26431;-79
2024/02/25 01:19:14;;;;;;;3.63;2.17;;;6.90;99.90;;;;;;796510;178;27090;-80
2024/02/25 01:21:41;;;;;;;4.43;2.37;;;6.80;99.90;;;;;;788465;180;26486;-80
2024/02/25 01:24:07;;;;;;;3.47;2.57;;;6.80;99.90;;;;;;800468;178;26468;-80
2024/02/25 01:26:34;;;;;;;4.27;2.10;;;6.80;99.90;;;;;;806894;177;26566;-81
2024/02/25 01:29:01;;;;;;;3.73;2.00;;;6.80;99.90;;;;;;794155;177;26482;-80
2024/02/25 01:31:27;;;;;;;4.63;2.50;;;6.80;99.90;;;;;;786438;179;26566;-79
2024/02/25 01:33:54;;;;;;;5.47;2.50;;;6.80;99.90;;;;;;797087;177;26473;-81
2024/02/25 01:36:20;;;;;;;3.53;2.87;;;6.80;99.90;;;;;;791772;179;26467;-81
2024/02/25 01:38:47;;;;;;;5.03;2.60;;;6.70;99.90;;;;;;789408;179;27000;-81
2024/02/25 01:41:14;;;;;;;2.43;2.17;;;6.80;99.90;;;;;;795830;178;26466;-80
2024/02/25 01:43:41;;;;;;;2.63;2.43;;;6.80;99.90;;;;;;788864;180;26458;-79
2024/02/25 01:46:08;;;;;;;3.17;2.40;;;6.80;99.90;;;;;;792069;179;26493;-80
2024/02/25 01:48:34;;;;;;;3.37;2.63;;;6.80;99.90;;;;;;786375;180;26485;-79
2024/02/25 01:51:02;;;;;;;3.33;2.10;;;6.80;99.90;;;;;;793846;179;26477;-79
2024/02/25 01:53:27;;;;;;;3.00;2.70;;;6.70;99.90;;;;;;786215;180;26467;-81
2024/02/25 01:55:55;;;;;;;4.00;2.50;;;6.80;99.90;;;;;;794539;180;26499;-80
2024/02/25 01:58:21;;;;;;;5.27;2.97;;;6.70;99.90;;;;;;795173;179;26511;-81
2024/02/25 02:00:47;;;;;;;2.93;2.60;;;6.70;99.90;;;;;;790115;180;26496;-81
2024/02/25 02:03:15;;;;;;;4.87;2.80;;;6.80;99.90;;;;;;795291;180;26538;-80
2024/02/25 02:05:41;;;;;;;3.77;2.33;;;6.80;99.90;;;;;;783569;180;26500;-80
2024/02/25 02:08:08;;;;;;;4.73;2.30;;;6.70;99.90;;;;;;794409;179;27080;-79
2024/02/25 02:10:36;;;;;;;5.10;3.03;;;6.70;99.90;;;;;;788979;180;27005;-79
2024/02/25 02:13:05;;;;;;;5.00;3.43;;;6.70;99.90;;;;;;785556;177;26456;-78
2024/02/25 02:15:29;;;;;;;4.97;2.90;;;6.70;99.90;;;;;;806119;177;26444;-78
2024/02/25 02:17:55;;;;;;;4.03;2.67;;;6.70;99.90;;;;;;788800;180;26544;-80
2024/02/25 02:20:22;;;;;;;4.97;2.67;;;6.60;99.90;;;;;;790780;180;26469;-78
2024/02/25 02:22:50;;;;;;;3.40;2.63;;;6.60;99.90;;;;;;794607;179;27432;-81
2024/02/25 02:25:16;;;;;;;4.03;2.60;;;6.70;99.90;;;;;;788643;180;26667;-80
2024/02/25 02:27:43;;;;;;;5.20;2.43;;;6.60;99.90;;;;;;794115;181;26484;-80
2024/02/25 02:30:10;;;;;;;4.20;2.33;;;6.70;99.90;;;;;;790800;180;26475;-80
2024/02/25 02:32:36;;;;;;;4.33;2.40;;;6.70;99.90;;;;;;787217;180;26491;-81
2024/02/25 02:35:03;;;;;;;5.80;2.20;;;6.70;99.90;;;;;;789904;180;26483;-80
2024/02/25 02:37:29;;;;;;;5.03;2.43;;;6.70;99.90;;;;;;792245;180;27009;-79
2024/02/25 02:39:56;;;;;;;2.33;1.90;;;6.70;99.90;;;;;;796775;178;26468;-80
2024/02/25 02:42:23;;;;;;;3.10;2.20;;;6.70;99.90;;;;;;791125;180;26996;-80
2024/02/25 02:44:50;;;;;;;5.27;2.23;;;6.70;99.90;;;;;;806033;177;26676;-80
2024/02/25 02:47:17;;;;;;;2.50;2.00;;;6.70;99.90;;;;;;804594;177;26732;-81
2024/02/25 02:49:43;;;;;;;2.90;2.40;;;6.70;99.90;;;;;;798871;177;26471;-79
2024/02/25 02:52:09;;;;;;;2.77;2.03;;;6.70;99.90;;;;;;804573;177;26458;-80
2024/02/25 02:54:36;;;;;;;3.13;2.17;;;6.70;99.90;;;;;;785512;179;26525;-80
2024/02/25 02:57:02;;;;;;;2.53;1.80;;;6.70;99.90;;;;;;787115;181;26482;-81
2024/02/25 02:59:29;;;;;;;2.27;1.73;;;6.70;99.90;;;;;;793325;180;26480;-80
2024/02/25 03:01:56;;;;;;;1.80;1.70;;;6.70;99.90;;;;;;792056;180;26467;-81
2024/02/25 03:04:23;;;;;;;1.90;1.70;;;6.70;99.90;;;;;;789502;180;26523;-80
2024/02/25 03:06:49;;;;;;;2.70;1.70;;;6.80;99.90;;;;;;794398;177;26477;-80
2024/02/25 03:09:15;;;;;;;3.40;2.03;;;6.80;99.90;;;;;;791712;179;26480;-81
2024/02/25 03:11:42;;;;;;;2.17;1.67;;;6.80;99.90;;;;;;801140;178;26483;-80
2024/02/25 03:14:09;;;;;;;4.67;3.20;;;6.80;99.90;;;;;;796556;178;26454;-79
2024/02/25 03:16:35;;;;;;;4.33;3.00;;;6.80;99.90;;;;;;800351;178;27093;-78
2024/02/25 03:19:02;;;;;;;2.93;2.20;;;6.70;99.90;;;;;;786875;181;26987;-79
2024/02/25 03:21:28;;;;;;;3.00;2.30;;;6.70;99.90;;;;;;783136;180;26477;-80
2024/02/25 03:23:56;;;;;;;2.87;2.63;;;6.70;99.90;;;;;;795960;177;27026;-78
2024/02/25 03:26:23;;;;;;;3.00;2.27;;;6.70;99.90;;;;;;793842;180;27015;-79
2024/02/25 03:28:49;;;;;;;2.73;2.20;;;6.70;99.90;;;;;;785966;180;26480;-80
2024/02/25 03:31:16;;;;;;;2.50;2.30;;;6.80;99.90;;;;;;788125;180;26461;-79
2024/02/25 03:33:42;;;;;;;5.60;2.63;;;6.80;99.90;;;;;;786275;177;26489;-78
2024/02/25 03:36:09;;;;;;;3.90;2.20;;;6.80;99.90;;;;;;783275;180;26488;-80
2024/02/25 03:38:36;;;;;;;2.53;2.30;;;6.90;99.90;;;;;;807692;177;26995;-81
2024/02/25 03:41:02;;;;;;;2.93;2.33;;;6.90;99.90;;;;;;792386;180;27006;-81
2024/02/25 03:43:29;;;;;;;5.10;2.63;;;6.90;99.90;;;;;;802547;177;26979;-81
2024/02/25 03:45:55;;;;;;;3.53;2.57;;;6.80;99.90;;;;;;789800;179;26456;-81
2024/02/25 03:48:22;;;;;;;3.00;2.70;;;6.80;99.90;;;;;;803991;177;26447;-80
2024/02/25 03:50:49;;;;;;;3.57;2.50;;;6.80;99.90;;;;;;797330;177;26447;-80
2024/02/25 03:53:17;;;;;;;5.73;3.03;;;6.80;99.90;;;;;;787859;179;26516;-80
2024/02/25 03:55:43;;;;;;;4.40;2.73;;;6.80;99.90;;;;;;796723;177;26460;-81
2024/02/25 03:58:10;;;;;;;3.00;2.40;;;6.80;99.90;;;;;;806406;177;26618;-82
2024/02/25 04:00:37;;;;;;;2.80;2.17;;;6.80;99.90;;;;;;800581;178;26439;-80
2024/02/25 04:03:03;;;;;;;4.50;3.60;;;6.80;99.90;;;;;;806531;177;26435;-81
2024/02/25 04:05:30;;;;;;;3.77;2.67;;;6.70;99.90;;;;;;806474;177;26442;-81
2024/02/25 04:07:57;;;;;;;2.90;2.50;;;6.80;99.90;;;;;;806112;177;26446;-80
2024/02/25 04:10:25;;;;;;;3.80;2.40;;;6.80;99.90;;;;;;809512;177;26496;-80
2024/02/25 04:12:50;;;;;;;5.93;4.20;;;6.80;99.90;;;;;;807381;177;26966;-79
2024/02/25 04:15:16;;;;;;;19.10;11.63;;;6.80;99.90;;;;;;805164;177;26439;-82
2024/02/25 04:17:43;;;;;;;3.70;2.37;;;6.80;99.90;;;;;;806388;177;26499;-80
2024/02/25 04:20:10;;;;;;;2.60;2.20;;;6.80;99.90;;;;;;807643;177;26639;-81
2024/02/25 04:22:37;;;;;;;2.00;1.80;;;6.80;99.90;;;;;;806720;177;26466;-80
2024/02/25 04:25:04;;;;;;;2.80;2.10;;;6.80;99.90;;;;;;809096;176;26438;-80
2024/02/25 04:27:31;;;;;;;3.17;1.80;;;6.80;99.90;;;;;;808581;177;26471;-80
2024/02/25 04:29:57;;;;;;;2.40;1.87;;;6.80;99.90;;;;;;806265;177;26435;-80
2024/02/25 04:32:24;;;;;;;2.33;1.90;;;6.80;99.90;;;;;;788601;180;27019;-81
2024/02/25 04:34:51;;;;;;;2.37;2.17;;;6.60;99.90;;;;;;795981;179;26760;-81
2024/02/25 04:37:17;;;;;;;2.30;2.10;;;6.50;99.90;;;;;;791864;180;27055;-80
2024/02/25 04:39:44;;;;;;;3.83;2.00;;;6.40;99.90;;;;;;798560;177;26444;-80
2024/02/25 04:42:10;;;;;;;3.57;1.80;;;6.40;99.90;;;;;;809540;177;26579;-81
2024/02/25 04:44:37;;;;;;;2.10;1.90;;;6.40;99.90;;;;;;790379;179;26461;-81
2024/02/25 04:47:04;;;;;;;4.17;1.90;;;6.40;99.90;;;;;;784826;181;27042;-80
2024/02/25 04:49:30;;;;;;;3.07;2.30;;;6.50;99.90;;;;;;791827;180;26482;-79
2024/02/25 04:51:57;;;;;;;2.50;2.03;;;6.50;99.90;;;;;;791429;180;26447;-80
2024/02/25 04:54:24;;;;;;;2.60;2.00;;;6.50;99.90;;;;;;787654;180;26473;-80
2024/02/25 04:56:54;;;;;;;2.10;1.90;;;6.60;99.90;;;;;;788427;180;26510;-79
2024/02/25 04:59:17;;;;;;;3.73;2.00;;;6.60;99.90;;;;;;787328;180;26450;-80
2024/02/25 05:01:45;;;;;;;2.97;2.03;;;6.70;99.90;;;;;;786534;180;26478;-81
2024/02/25 05:04:12;;;;;;;2.00;1.80;;;6.70;99.90;;;;;;792579;180;26485;-80
2024/02/25 05:06:38;;;;;;;2.97;1.90;;;6.70;99.90;;;;;;793818;180;27132;-81
2024/02/25 05:09:05;;;;;;;4.17;1.80;;;6.70;99.90;;;;;;796963;177;26483;-80
2024/02/25 05:11:32;;;;;;;4.23;2.33;;;6.60;99.90;;;;;;788861;180;26472;-80
2024/02/25 05:13:59;;;;;;;3.77;2.73;;;6.60;99.90;;;;;;794360;177;26508;-82
2024/02/25 05:16:26;;;;;;;3.13;2.00;;;6.50;99.90;;;;;;786165;180;26569;-81
2024/02/25 05:18:52;;;;;;;2.80;2.30;;;6.50;99.90;;;;;;802550;177;26443;-81
2024/02/25 05:21:19;;;;;;;4.17;2.20;;;6.40;99.90;;;;;;794488;179;26459;-81
2024/02/25 05:23:45;;;;;;;3.40;2.37;;;6.40;99.90;;;;;;795940;180;26523;-79
2024/02/25 05:26:12;;;;;;;2.70;2.20;;;6.40;99.90;;;;;;792457;180;26510;-80
2024/02/25 05:28:39;;;;;;;4.00;2.50;;;6.30;99.90;;;;;;794833;177;26455;-81
2024/02/25 05:31:06;;;;;;;2.93;2.23;;;6.30;99.90;;;;;;792098;180;26507;-81
2024/02/25 05:33:33;;;;;;;5.67;3.10;;;6.30;99.90;;;;;;790495;180;26734;-80
2024/02/25 05:35:59;;;;;;;7.93;2.23;;;6.30;99.90;;;;;;791647;180;27006;-81
2024/02/25 05:38:26;;;;;;;3.50;2.50;;;6.30;99.90;;;;;;805045;178;26432;-80
2024/02/25 05:40:52;;;;;;;3.00;2.20;;;6.30;99.90;;;;;;794518;177;26450;-80
2024/02/25 05:43:19;;;;;;;3.50;2.40;;;6.20;99.90;;;;;;797121;178;26517;-79
2024/02/25 05:45:46;;;;;;;3.40;2.40;;;6.30;99.90;;;;;;809537;177;26466;-79
2024/02/25 05:48:12;;;;;;;3.30;2.20;;;6.20;99.90;;;;;;795543;174;26477;-80
2024/02/25 05:50:39;;;;;;;5.10;2.17;;;6.20;99.90;;;;;;799119;178;27600;-82
2024/02/25 05:53:06;;;;;;;4.13;2.10;;;6.30;99.90;;;;;;805243;177;26450;-80
2024/02/25 05:55:32;;;;;;;2.67;2.40;;;6.30;99.90;;;;;;789488;177;26494;-81
2024/02/25 05:57:59;;;;;;;3.07;2.40;;;6.20;99.90;;;;;;788748;180;26461;-79
2024/02/25 06:00:25;;;;;;;4.27;2.50;;;6.20;99.90;;;;;;788104;181;27105;-79
2024/02/25 06:02:52;;;;;;;2.67;2.40;;;6.20;99.90;;;;;;798729;177;26480;-81
2024/02/25 06:05:19;;;;;;;4.43;2.23;;;6.20;99.90;;;;;;801539;177;26483;-79
2024/02/25 06:07:46;;;;;;;5.03;2.53;;;6.20;99.90;;;;;;787139;180;26503;-80
2024/02/25 06:10:12;;;;;;;4.13;2.63;;;6.20;99.90;;;;;;790875;181;26452;-79
2024/02/25 06:12:39;;;;;;;7.47;4.73;;;6.20;99.90;;;;;;789383;180;26533;-80
2024/02/25 06:15:11;;;;;;;6.77;4.23;;;6.20;99.90;;;;;;809791;175;26434;-79
2024/02/25 06:17:35;;;;;;;4.00;3.20;;;6.30;99.90;;;;;;800195;177;26796;-81
2024/02/25 06:20:02;;;;;;;4.37;3.10;;;6.30;99.90;;;;;;795595;177;26436;-79
2024/02/25 06:22:28;;;;;;;6.17;3.50;;;6.30;99.90;;;;;;803863;177;26454;-79
2024/02/25 06:24:54;;;;;;;2.80;2.50;;;6.30;99.90;;;;;;790870;177;26760;-79
2024/02/25 06:27:21;;;;;;;4.43;3.17;;;6.30;99.90;;;;;;795996;169;26531;-77
2024/02/25 06:29:48;;;;;;;3.70;2.87;;;6.30;99.90;;;;;;796342;179;27026;-79
2024/02/25 06:32:14;;;;;;;5.23;3.47;;;6.30;99.90;;;;;;796756;179;26504;-77
2024/02/25 06:34:41;;;;;;;4.77;2.87;;;6.30;99.90;;;;;;794696;179;27130;-77
2024/02/25 06:37:08;;;;;;;5.53;3.30;;;6.30;99.90;;;;;;798261;179;26575;-78
2024/02/25 06:39:35;;;;;;;5.13;3.73;;;6.30;99.90;;;;;;780655;183;26612;-77
2024/02/25 06:42:03;;;;;;;4.97;3.80;;;6.40;99.90;;;;;;794806;179;26562;-77
2024/02/25 06:44:31;;;;;;;4.03;2.90;;;6.30;99.90;;;;;;794717;180;26458;-77
2024/02/25 06:46:56;;;;;;;4.83;3.70;;;6.40;99.90;;;;;;794771;179;26508;-77
2024/02/25 06:49:23;;;;;;;7.93;3.90;;;6.40;99.90;;;;;;793740;180;26464;-77
2024/02/25 06:51:50;;;;;;;3.97;3.20;;;6.50;99.90;;;;;;794247;180;26529;-77
2024/02/25 06:54:17;;;;;;;5.40;2.80;;;6.40;99.90;;;;;;792925;180;26568;-77
2024/02/25 06:56:43;;;;;;;4.73;2.93;;;6.50;99.90;;;;;;794118;180;26688;-78
2024/02/25 06:59:10;;;;;;;3.23;2.57;;;6.60;99.90;;;;;;795590;180;26996;-78
2024/02/25 07:01:36;;;;;;;5.67;2.50;;;6.60;99.90;;;;;;795619;180;26490;-77
2024/02/25 07:04:03;;;;;;;3.67;2.30;;;6.70;99.90;;;;;;797837;180;26790;-78
2024/02/25 07:06:30;;;;;;;3.97;2.70;;;6.70;99.90;;;;;;796360;180;26457;-77
2024/02/25 07:08:57;;;;;;;2.43;2.23;;;6.80;99.90;;;;;;794627;180;26500;-77
2024/02/25 07:11:27;;;;;;;2.70;2.33;;;6.80;99.90;;;;;;795760;177;27030;-77
2024/02/25 07:13:51;;;;;;;3.57;2.10;;;6.90;99.90;;;;;;795284;180;26471;-78
2024/02/25 07:16:16;;;;;;;2.20;2.00;;;6.90;99.90;;;;;;795111;180;26445;-78
2024/02/25 07:18:43;;;;;;;3.20;1.77;;;6.90;99.90;;;;;;794748;180;26594;-72
2024/02/25 07:21:13;;;;;;;2.80;1.80;;;7.10;99.90;;;;;;793252;180;26536;-75
2024/02/25 07:23:42;;;;;;;2.43;1.80;;;7.00;99.90;;;;;;791863;180;26528;-74
2024/02/25 07:26:08;;;;;;;1.70;1.60;;;7.10;99.90;;;;;;794420;179;26514;-74
2024/02/25 07:28:35;;;;;;;1.90;1.80;;;7.10;99.90;;;;;;797509;179;26455;-73
2024/02/25 07:31:01;;;;;;;2.03;1.93;;;7.20;99.90;;;;;;798513;179;26737;-77
2024/02/25 07:33:28;;;;;;;3.13;1.67;;;7.00;99.90;;;;;;799707;179;27007;-78
2024/02/25 07:35:54;;;;;;;2.30;2.10;;;6.80;99.90;;;;;;797532;179;26461;-77
2024/02/25 07:38:21;;;;;;;2.73;1.70;;;6.70;99.90;;;;;;793871;179;27066;-77
2024/02/25 07:40:48;;;;;;;2.40;1.80;;;6.60;99.90;;;;;;795292;179;26448;-77
2024/02/25 07:43:15;;;;;;;3.83;2.07;;;6.60;99.90;;;;;;798085;180;27009;-77
2024/02/25 07:45:41;;;;;;;4.10;2.17;;;6.60;99.90;;;;;;796135;177;26489;-78
2024/02/25 07:48:11;;;;;;;2.53;1.80;;;6.70;99.90;;;;;;795140;180;28447;-79
2024/02/25 07:50:37;;;;;;;2.40;1.70;;;6.70;99.90;;;;;;798019;180;26618;-77
2024/02/25 07:53:04;;;;;;;3.70;1.90;;;6.80;99.90;;;;;;795991;180;26537;-77
2024/02/25 07:55:31;;;;;;;2.87;1.60;;;6.70;99.90;;;;;;796707;180;26526;-78
2024/02/25 07:57:57;;;;;;;2.00;1.80;;;6.90;99.90;;;;;;796175;180;26473;-77
2024/02/25 08:00:24;;;;;;;2.10;1.90;;;6.90;99.90;;;;;;797136;180;26979;-77
2024/02/25 08:02:52;;;;;;;4.63;1.90;;;7.00;99.90;;;;;;793785;180;26845;-77
2024/02/25 08:05:17;;;;;;;1.67;1.57;;;7.00;99.90;;;;;;797025;180;27585;-79
2024/02/25 08:07:45;;;;;;;3.17;1.80;;;7.00;99.90;;;;;;795787;180;26552;-78
2024/02/25 08:10:11;;;;;;;2.37;1.60;;;7.10;99.90;;;;;;796020;177;26456;-77
2024/02/25 08:12:39;;;;;;;3.07;1.70;;;7.10;99.90;;;;;;792617;180;26499;-77
2024/02/25 08:15:04;;;;;;;1.97;1.60;;;7.20;99.90;;;;;;791753;180;26515;-77
2024/02/25 08:17:31;;;;;;;2.60;1.60;;;7.20;99.90;;;;;;797578;180;26475;-77
2024/02/25 08:19:58;;;;;;;1.80;1.60;;;7.40;99.90;;;;;;793823;180;26536;-78
2024/02/25 08:22:25;;;;;;;1.70;1.60;;;7.40;99.90;;;;;;792130;180;26514;-77
2024/02/25 08:24:53;;;;;;;1.97;1.50;;;7.50;99.90;;;;;;792366;180;26517;-78
2024/02/25 08:27:20;;;;;;;1.50;1.40;;;7.50;99.90;;;;;;794664;180;27103;-77
2024/02/25 08:29:46;;;;;;;1.47;1.37;;;7.50;99.90;;;;;;794651;180;26461;-77
2024/02/25 08:32:13;;;;;;;1.50;1.40;;;7.50;99.90;;;;;;795590;180;26469;-78
2024/02/25 08:34:39;;;;;;;2.17;1.60;;;7.60;99.90;;;;;;795716;180;26750;-78
2024/02/25 08:37:06;;;;;;;2.53;1.93;;;7.70;99.90;;;;;;793240;179;26542;-77
2024/02/25 08:39:32;;;;;;;1.83;1.60;;;7.80;99.90;;;;;;797031;179;26521;-79
2024/02/25 08:41:59;;;;;;;2.83;1.50;;;7.80;99.90;;;;;;794046;179;26518;-78
2024/02/25 08:44:25;;;;;;;2.90;1.80;;;7.80;99.90;;;;;;796186;180;26485;-77
2024/02/25 08:46:52;;;;;;;3.20;1.70;;;7.90;99.90;;;;;;794311;179;26498;-78
2024/02/25 08:49:19;;;;;;;1.50;1.40;;;7.90;99.90;;;;;;795437;180;26480;-77
2024/02/25 08:51:46;;;;;;;1.93;1.60;;;7.90;99.90;;;;;;793109;179;26480;-77
2024/02/25 08:54:13;;;;;;;2.60;1.60;;;8.00;99.90;;;;;;795779;179;26489;-77
2024/02/25 08:56:40;;;;;;;3.17;1.60;;;8.30;99.90;;;;;;794051;179;26465;-78
2024/02/25 08:59:07;;;;;;;2.10;1.43;;;8.40;99.90;;;;;;794432;180;26492;-77
2024/02/25 09:01:35;;;;;;;1.90;1.73;;;8.50;99.90;;;;;;795597;179;26484;-77
2024/02/25 09:04:01;;;;;;;2.00;1.80;;;8.50;99.90;;;;;;794456;179;26987;-78
2024/02/25 09:06:28;;;;;;;1.40;1.30;;;8.50;99.90;;;;;;796930;179;26467;-80
2024/02/25 09:08:57;;;;;;;3.43;1.53;;;8.40;99.90;;;;;;795752;179;26468;-77
2024/02/25 09:11:21;;;;;;;1.70;1.50;;;8.60;99.90;;;;;;795936;177;26509;-77
2024/02/25 09:13:51;;;;;;;4.10;1.83;;;9.00;99.90;;;;;;794917;180;27014;-77
2024/02/25 09:16:14;;;;;;;2.10;1.70;;;9.50;99.90;;;;;;793341;179;26474;-79
2024/02/25 09:18:41;;;;;;;2.50;1.60;;;9.80;99.90;;;;;;796034;180;27012;-76
2024/02/25 09:21:07;;;;;;;2.40;1.50;;;9.40;99.90;;;;;;796802;180;26448;-77
2024/02/25 09:23:34;;;;;;;1.77;1.40;;;9.30;99.90;;;;;;797908;180;26436;-78
2024/02/25 09:26:00;;;;;;;2.53;1.53;;;9.30;99.90;;;;;;797900;180;26441;-78
2024/02/25 09:28:28;;;;;;;2.00;1.23;;;9.20;99.90;;;;;;797947;179;26473;-78
2024/02/25 09:30:54;;;;;;;1.63;1.40;;;9.50;99.90;;;;;;794976;180;26460;-78
2024/02/25 09:33:21;;;;;;;1.90;1.50;;;9.70;99.90;;;;;;795245;180;26480;-78
2024/02/25 09:35:47;;;;;;;1.40;1.30;;;10.00;99.00;;;;;;796993;177;27137;-77
2024/02/25 09:38:13;;;;;;;5.23;3.20;;;9.80;99.10;;;;;;792716;180;26533;-77
2024/02/25 09:40:40;;;;;;;2.13;1.20;;;9.80;99.40;;;;;;795976;180;26478;-78
2024/02/25 09:43:07;;;;;;;1.33;1.23;;;9.90;98.80;;;;;;795340;180;26463;-78
2024/02/25 09:45:34;;;;;;;8.60;4.40;;;9.80;99.90;;;;;;796217;179;26480;-78
2024/02/25 09:48:01;;;;;;;2.43;2.20;;;9.70;99.80;;;;;;792958;179;26549;-78
2024/02/25 09:50:29;;;;;;;4.70;3.00;;;10.00;99.10;;;;;;797479;179;26463;-78
2024/02/25 09:52:54;;;;;;;6.00;3.37;;;10.00;98.90;;;;;;796554;179;26453;-78
2024/02/25 09:55:20;;;;;;;2.80;1.37;;;10.10;97.60;;;;;;798197;179;26441;-78
2024/02/25 09:57:50;;;;;;;2.80;1.30;;;10.00;98.10;;;;;;796372;179;26471;-77
2024/02/25 10:00:14;;;;;;;2.33;1.80;;;10.30;97.20;;;;;;796853;177;26450;-78
2024/02/25 10:02:40;;;;;;;1.70;1.50;;;10.30;97.20;;;;;;797103;179;26461;-77
2024/02/25 10:05:08;;;;;;;1.70;1.20;;;10.10;97.50;;;;;;797191;179;26451;-79
2024/02/25 10:07:34;;;;;;;1.93;1.50;;;9.80;97.70;;;;;;796518;179;26480;-79
2024/02/25 10:10:02;;;;;;;1.97;1.77;;;9.90;97.20;;;;;;796424;179;26414;-78
2024/02/25 10:12:27;;;;;;;2.63;1.90;;;10.10;97.00;;;;;;794178;180;26507;-79
2024/02/25 10:14:55;;;;;;;1.80;1.37;;;10.20;96.90;;;;;;797509;180;26428;-78
2024/02/25 10:17:21;;;;;;;4.57;2.00;;;10.20;95.90;;;;;;797952;180;26453;-79
2024/02/25 10:19:51;;;;;;;5.90;3.63;;;10.30;95.90;;;;;;797964;179;26457;-80
2024/02/25 10:22:17;;;;;;;8.37;4.87;;;10.30;95.90;;;;;;796220;179;26444;-79
2024/02/25 10:24:44;;;;;;;4.17;3.27;;;10.40;96.90;;;;;;795323;179;26454;-79
2024/02/25 10:27:10;;;;;;;2.90;1.87;;;10.50;96.10;;;;;;798302;180;26488;-79
2024/02/25 10:29:49;;;;;;;2.67;1.73;;;10.50;94.90;;;;;;798735;177;27034;-80
2024/02/25 10:32:35;;;;;;;4.80;2.93;;;10.50;95.20;;;;;;798523;180;27017;-79
2024/02/25 10:35:00;;;;;;;3.90;2.00;;;10.50;94.60;;;;;;793732;179;26570;-80
2024/02/25 10:37:26;;;;;;;5.07;3.03;;;10.70;94.40;;;;;;796032;180;26460;-79
2024/02/25 10:39:54;;;;;;;3.93;1.60;;;10.70;93.90;;;;;;794587;180;26615;-79
2024/02/25 10:42:22;;;;;;;3.83;1.63;;;10.50;93.80;;;;;;795346;180;26448;-79
2024/02/25 10:44:48;;;;;;;2.03;1.37;;;10.40;93.90;;;;;;796532;180;26577;-79
2024/02/25 10:47:16;;;;;;;14.30;6.70;;;10.70;93.50;;;;;;796618;180;26455;-80
2024/02/25 10:49:42;;;;;;;2.43;1.40;;;10.60;93.20;;;;;;796932;180;26625;-79
2024/02/25 10:52:08;;;;;;;2.07;1.67;;;10.30;93.30;;;;;;797310;180;26434;-76
2024/02/25 10:54:35;;;;;;;2.77;1.80;;;10.50;93.30;;;;;;796032;180;26473;-79
2024/02/25 10:57:01;;;;;;;1.90;1.70;;;10.70;93.70;;;;;;797576;180;26482;-79
2024/02/25 10:59:28;;;;;;;11.23;5.60;;;11.10;91.70;;;;;;794500;179;26469;-78
2024/02/25 11:01:54;;;;;;;5.97;3.60;;;11.30;91.60;;;;;;784491;179;26449;-77
2024/02/25 11:04:21;;;;;;;3.80;2.00;;;11.10;90.50;;;;;;800271;179;26470;-79
2024/02/25 11:06:48;;;;;;;3.67;1.77;;;10.70;91.40;;;;;;800018;179;26440;-80
2024/02/25 11:09:14;;;;;;;5.53;1.90;;;10.40;91.90;;;;;;798584;180;26489;-79
2024/02/25 11:11:42;;;;;;;5.03;2.37;;;10.40;92.20;;;;;;798381;180;26442;-78
2024/02/25 11:14:10;;;;;;;3.40;1.70;;;11.40;90.20;;;;;;799815;180;26703;-78
2024/02/25 11:16:39;;;;;;;5.23;1.90;;;12.00;83.90;;;;;;798020;179;26445;-79
2024/02/25 11:19:04;;;;;;;4.10;1.93;;;12.30;80.30;;;;;;800249;180;26456;-79
2024/02/25 11:21:33;;;;;;;2.00;1.60;;;11.90;83.10;;;;;;797198;179;26635;-77
2024/02/25 11:23:58;;;;;;;5.20;2.77;;;11.70;86.00;;;;;;798918;177;26575;-79
2024/02/25 11:26:36;;;;;;;25.07;11.93;;;11.60;86.60;;;;;;796100;179;26443;-79
2024/02/25 11:29:13;;;;;;;13.70;7.30;;;11.10;87.50;;;;;;795187;179;26446;-78
2024/02/25 11:31:46;;;;;;;21.27;12.37;;;10.70;90.40;;;;;;795678;179;26458;-78
2024/02/25 11:34:13;;;;;;;5.27;2.87;;;10.40;91.30;;;;;;796814;179;26480;-79
2024/02/25 11:36:40;;;;;;;21.10;10.03;;;10.60;92.10;;;;;;795901;180;26615;-78
2024/02/25 11:39:07;;;;;;;4.67;2.40;;;10.60;91.10;;;;;;797766;180;26460;-78
2024/02/25 11:41:34;;;;;;;2.97;1.70;;;10.70;90.10;;;;;;797382;180;26424;-78
2024/02/25 11:44:01;;;;;;;5.77;1.53;;;10.80;89.90;;;;;;796120;180;26449;-78
2024/02/25 11:46:28;;;;;;;3.00;1.87;;;10.80;90.20;;;;;;800090;179;26461;-78
2024/02/25 11:48:56;;;;;;;5.07;1.83;;;10.80;90.80;;;;;;800211;180;26457;-78
2024/02/25 11:51:29;;;;;;;11.87;6.43;;;12.40;82.80;;;;;;806204;173;26466;-79
2024/02/25 11:54:00;;;;;;;75.20;38.13;;;13.00;78.10;;;;;;812413;177;26414;-81
2024/02/25 11:56:31;;;;;;;42.87;21.00;;;12.30;79.70;;;;;;808406;178;26423;-80
2024/02/25 11:58:58;;;;;;;12.07;6.93;;;12.50;77.40;;;;;;803665;178;26481;-80
2024/02/25 12:01:25;;;;;;;16.67;9.00;;;11.80;83.70;;;;;;801435;179;26485;-80
2024/02/25 12:03:53;;;;;;;12.80;6.07;;;13.10;79.90;;;;;;814295;176;26411;-82
2024/02/25 12:06:20;;;;;;;27.23;13.83;;;13.20;73.90;;;;;;822040;174;26509;-80
2024/02/25 12:08:49;;;;;;;10.40;5.73;;;12.60;76.10;;;;;;815687;171;26450;-82
2024/02/25 12:11:16;;;;;;;42.07;19.87;;;12.00;82.80;;;;;;810117;173;26445;-81
2024/02/25 12:13:45;;;;;;;30.27;13.93;;;11.90;83.80;;;;;;811105;175;26603;-82
2024/02/25 12:16:11;;;;;;;14.90;7.43;;;12.30;85.10;;;;;;823318;173;26391;-81
2024/02/25 12:18:37;;;;;;;2.27;1.70;;;12.30;85.00;;;;;;802263;176;26484;-84
2024/02/25 12:21:04;;;;;;;2.53;1.60;;;12.20;77.50;;;;;;793934;180;26481;-83
2024/02/25 12:23:31;;;;;;;3.03;1.20;;;12.00;76.80;;;;;;801762;176;27208;-82
2024/02/25 12:26:03;;;;;;;3.30;1.60;;;11.50;86.70;;;;;;814806;176;26577;-81
2024/02/25 12:28:37;;;;;;;3.90;1.90;;;11.40;81.80;;;;;;810138;174;26445;-81
2024/02/25 12:31:05;;;;;;;15.27;8.43;;;11.50;81.60;;;;;;816520;175;26458;-84
2024/02/25 12:33:32;;;;;;;22.93;12.50;;;11.50;83.50;;;;;;817687;176;26472;-81
2024/02/25 12:35:59;;;;;;;4.07;1.70;;;11.40;80.40;;;;;;788258;180;26468;-83
2024/02/25 12:38:25;;;;;;;30.67;14.67;;;11.30;79.50;;;;;;804232;170;26494;-78
2024/02/25 12:40:54;;;;;;;13.53;6.37;;;11.10;78.60;;;;;;813586;176;26459;-79
2024/02/25 12:43:20;;;;;;;58.00;26.53;;;11.10;81.20;;;;;;828576;172;26450;-78
2024/02/25 12:45:47;;;;;;;17.90;9.43;;;11.10;81.50;;;;;;829151;173;26438;-78
2024/02/25 12:48:14;;;;;;;40.40;22.00;;;11.10;84.60;;;;;;829300;172;26420;-79
2024/02/25 12:50:42;;;;;;;18.97;8.97;;;10.90;82.90;;;;;;828820;172;26455;-79